createdAt,value
2022-12-05T00:00:57.167Z,7.00
2022-12-05T00:03:29.203Z,7.00
2022-12-05T00:06:02.470Z,7.00
2022-12-05T00:08:37.824Z,7.00
2022-12-05T00:11:11.318Z,7.00
2022-12-05T00:13:41.398Z,7.00
2022-12-05T00:16:17.116Z,7.00
2022-12-05T00:18:49.237Z,7.00
2022-12-05T00:21:25.544Z,7.00
2022-12-05T00:24:00.733Z,7.00
2022-12-05T00:26:32.619Z,7.10
2022-12-05T00:29:01.876Z,7.00
2022-12-05T00:31:36.489Z,7.00
2022-12-05T00:34:07.276Z,7.00
2022-12-05T00:36:37.743Z,7.10
2022-12-05T00:39:13.533Z,7.00
2022-12-05T00:41:43.566Z,7.10
2022-12-05T00:44:17.493Z,7.00
2022-12-05T00:46:45.629Z,7.10
2022-12-05T00:49:21.346Z,7.00
2022-12-05T00:52:10.374Z,7.00
2022-12-05T00:54:40.782Z,7.00
2022-12-05T00:57:13.151Z,7.00
2022-12-05T00:59:41.970Z,7.00
2022-12-05T01:02:13.037Z,7.00
2022-12-05T01:04:44.207Z,7.00
2022-12-05T01:07:15.117Z,7.00
2022-12-05T01:09:45.401Z,7.00
2022-12-05T01:12:12.696Z,7.00
2022-12-05T01:14:45.996Z,7.00
2022-12-05T01:17:21.178Z,7.00
2022-12-05T01:19:53.373Z,7.00
2022-12-05T01:22:24.352Z,7.00
2022-12-05T01:24:56.268Z,7.00
2022-12-05T01:27:25.336Z,7.10
2022-12-05T01:29:56.373Z,7.00
2022-12-05T01:32:25.321Z,7.10
2022-12-05T01:34:55.130Z,7.10
2022-12-05T01:37:28.242Z,7.10
2022-12-05T01:39:58.277Z,7.10
2022-12-05T01:42:27.926Z,7.10
2022-12-05T01:45:08.777Z,7.10
2022-12-05T01:47:41.338Z,7.00
2022-12-05T01:50:11.210Z,7.00
2022-12-05T01:52:40.394Z,7.00
2022-12-05T01:55:22.377Z,7.00
2022-12-05T01:57:54.709Z,7.00
2022-12-05T02:00:23.097Z,7.00
2022-12-05T02:02:56.727Z,7.00
2022-12-05T02:05:34.595Z,7.00
2022-12-05T02:08:29.966Z,7.00
2022-12-05T02:11:02.311Z,7.00
2022-12-05T02:14:17.112Z,7.00
2022-12-05T02:17:06.734Z,7.00
2022-12-05T02:20:13.359Z,7.10
2022-12-05T02:23:07.533Z,7.10
2022-12-05T02:26:17.370Z,7.00
2022-12-05T02:29:44.079Z,7.00
2022-12-05T02:32:42.066Z,7.00
2022-12-05T02:35:50.026Z,7.10
2022-12-05T02:38:27.453Z,7.10
2022-12-05T02:41:32.152Z,7.10
2022-12-05T02:44:39.288Z,7.10
2022-12-05T02:47:13.642Z,7.10
2022-12-05T02:49:45.699Z,7.10
2022-12-05T02:52:18.295Z,7.10
2022-12-05T02:54:51.814Z,7.10
2022-12-05T02:57:26.885Z,7.10
2022-12-05T02:59:57.258Z,7.20
2022-12-05T03:02:33.374Z,7.20
2022-12-05T03:05:48.376Z,7.20
2022-12-05T03:08:26.430Z,7.20
2022-12-05T03:10:58.089Z,7.20
2022-12-05T03:13:32.646Z,7.20
2022-12-05T03:16:15.701Z,7.20
2022-12-05T03:18:50.684Z,7.20
2022-12-05T03:21:49.915Z,7.20
2022-12-05T03:24:20.655Z,7.20
2022-12-05T03:27:14.673Z,7.20
2022-12-05T03:30:10.668Z,7.20
2022-12-05T03:32:47.742Z,7.20
2022-12-05T03:35:53.026Z,7.20
2022-12-05T03:39:02.692Z,7.20
2022-12-05T03:41:45.650Z,7.20
2022-12-05T03:44:22.479Z,7.20
2022-12-05T03:47:20.611Z,7.20
2022-12-05T03:49:52.990Z,7.10
2022-12-05T03:52:30.528Z,7.20
2022-12-05T03:55:04.854Z,7.20
2022-12-05T03:58:08.700Z,7.20
2022-12-05T04:00:44.472Z,7.20
2022-12-05T04:03:41.073Z,7.20
2022-12-05T04:06:21.122Z,7.20
2022-12-05T04:09:04.652Z,7.20
2022-12-05T04:11:42.466Z,7.10
2022-12-05T04:14:43.391Z,7.20
2022-12-05T04:17:53.800Z,7.20
2022-12-05T04:21:07.894Z,7.20
2022-12-05T04:23:36.851Z,7.20
2022-12-05T04:26:23.101Z,7.10
2022-12-05T04:31:44.042Z,7.00
2022-12-05T04:34:17.390Z,7.00
2022-12-05T04:36:52.278Z,7.00
2022-12-05T04:39:54.381Z,7.00
2022-12-05T04:42:28.961Z,7.00
2022-12-05T04:45:12.754Z,6.90
2022-12-05T04:47:54.145Z,6.90
2022-12-05T04:50:27.126Z,6.80
2022-12-05T04:53:04.193Z,6.80
2022-12-05T04:55:39.707Z,6.80
2022-12-05T04:58:12.362Z,6.80
2022-12-05T05:01:21.292Z,6.80
2022-12-05T05:04:32.876Z,6.80
2022-12-05T05:07:09.318Z,6.80
2022-12-05T05:09:43.383Z,6.80
2022-12-05T05:12:19.293Z,6.70
2022-12-05T05:14:52.541Z,6.70
2022-12-05T05:17:24.046Z,6.70
2022-12-05T05:20:19.823Z,6.80
2022-12-05T05:22:53.935Z,6.70
2022-12-05T05:25:26.717Z,6.80
2022-12-05T05:27:59.519Z,6.80
2022-12-05T05:30:28.932Z,6.80
2022-12-05T05:33:00.100Z,6.80
2022-12-05T05:35:29.893Z,6.80
2022-12-05T05:37:59.554Z,6.80
2022-12-05T05:40:29.945Z,6.80
2022-12-05T05:42:59.386Z,6.90
2022-12-05T05:45:27.993Z,6.90
2022-12-05T05:48:00.357Z,6.90
2022-12-05T05:50:33.339Z,6.80
2022-12-05T05:53:03.126Z,6.90
2022-12-05T05:55:33.703Z,6.90
2022-12-05T05:58:06.036Z,6.90
2022-12-05T06:00:35.963Z,6.90
2022-12-05T06:03:10.453Z,6.80
2022-12-05T06:05:40.571Z,6.80
2022-12-05T06:08:10.349Z,6.80
2022-12-05T06:10:45.349Z,6.80
2022-12-05T06:13:15.604Z,6.80
2022-12-05T06:15:45.278Z,6.80
2022-12-05T06:21:00.381Z,6.90
2022-12-05T06:23:29.235Z,6.90
2022-12-05T06:26:01.394Z,6.90
2022-12-05T06:28:31.478Z,7.00
2022-12-05T06:30:59.106Z,7.00
2022-12-05T06:33:32.508Z,7.10
2022-12-05T06:36:25.154Z,7.10
2022-12-05T06:38:55.366Z,7.10
2022-12-05T06:41:30.663Z,7.10
2022-12-05T06:44:02.488Z,7.20
2022-12-05T06:46:34.416Z,7.10
2022-12-05T06:49:04.762Z,7.10
2022-12-05T06:51:36.360Z,7.10
2022-12-05T06:54:06.643Z,7.10
2022-12-05T06:56:36.809Z,7.20
2022-12-05T06:59:11.514Z,7.20
2022-12-05T07:01:46.277Z,7.20
2022-12-05T07:04:24.641Z,7.20
2022-12-05T07:06:55.953Z,7.20
2022-12-05T07:09:47.981Z,7.30
2022-12-05T07:12:21.074Z,7.30
2022-12-05T07:14:51.690Z,7.30
2022-12-05T07:17:20.134Z,7.30
2022-12-05T07:19:55.713Z,7.30
2022-12-05T07:22:29.870Z,7.30
2022-12-05T07:25:01.630Z,7.30
2022-12-05T07:27:37.693Z,7.30
2022-12-05T07:30:11.541Z,7.40
2022-12-05T07:32:44.773Z,7.40
2022-12-05T07:35:20.833Z,7.40
2022-12-05T07:37:50.365Z,7.40
2022-12-05T07:40:26.666Z,7.40
2022-12-05T07:42:58.969Z,7.50
2022-12-05T07:45:28.066Z,7.50
2022-12-05T07:47:57.853Z,7.60
2022-12-05T07:50:27.519Z,7.60
2022-12-05T07:52:55.978Z,7.60
2022-12-05T07:55:25.753Z,7.70
2022-12-05T07:57:54.956Z,7.70
2022-12-05T08:00:25.809Z,7.80
2022-12-05T08:02:58.825Z,7.80
2022-12-05T08:05:32.655Z,7.80
2022-12-05T08:08:01.210Z,7.80
2022-12-05T08:10:32.596Z,7.90
2022-12-05T08:13:02.197Z,8.00
2022-12-05T08:15:36.169Z,8.00
2022-12-05T08:18:08.994Z,8.00
2022-12-05T08:20:38.783Z,8.00
2022-12-05T08:23:08.708Z,8.10
2022-12-05T08:25:40.648Z,8.10
2022-12-05T08:28:07.846Z,8.10
2022-12-05T08:30:39.729Z,8.10
2022-12-05T08:33:07.159Z,8.20
2022-12-05T08:35:40.394Z,8.20
2022-12-05T08:38:10.415Z,8.20
2022-12-05T08:40:38.277Z,8.30
2022-12-05T08:43:07.490Z,8.30
2022-12-05T08:45:40.312Z,8.40
2022-12-05T08:48:11.779Z,8.40
2022-12-05T08:50:43.350Z,8.50
2022-12-05T08:53:16.137Z,8.50
2022-12-05T08:55:49.245Z,8.60
2022-12-05T08:58:21.949Z,8.60
2022-12-05T09:00:53.523Z,8.60
2022-12-05T09:03:23.816Z,8.70
2022-12-05T09:05:54.795Z,8.70
2022-12-05T09:08:24.954Z,8.70
2022-12-05T09:10:54.133Z,8.80
2022-12-05T09:13:24.601Z,8.80
2022-12-05T09:15:57.423Z,8.90
2022-12-05T09:18:26.286Z,8.90
2022-12-05T09:20:56.793Z,8.90
2022-12-05T09:23:32.348Z,9.00
2022-12-05T09:26:04.858Z,9.00
2022-12-05T09:28:34.022Z,9.00
2022-12-05T09:31:08.051Z,9.10
2022-12-05T09:33:39.574Z,9.10
2022-12-05T09:36:22.494Z,9.20
2022-12-05T09:38:56.441Z,9.20
2022-12-05T09:42:20.659Z,9.20
2022-12-05T09:45:00.359Z,9.30
2022-12-05T09:47:39.651Z,9.30
2022-12-05T09:50:25.706Z,9.20
2022-12-05T09:53:25.223Z,9.20
2022-12-05T09:56:01.508Z,9.20
2022-12-05T09:58:57.398Z,9.30
2022-12-05T10:01:56.194Z,9.30
2022-12-05T10:05:03.763Z,9.40
2022-12-05T10:07:44.240Z,9.50
2022-12-05T10:10:59.666Z,9.60
2022-12-05T10:13:36.714Z,9.70
2022-12-05T10:16:39.213Z,9.80
2022-12-05T10:19:18.986Z,9.80
2022-12-05T10:22:21.275Z,9.90
2022-12-05T10:25:02.427Z,10.00
2022-12-05T10:27:59.138Z,10.00
2022-12-05T10:30:39.868Z,10.10
2022-12-05T10:33:27.193Z,10.10
2022-12-05T10:35:57.875Z,10.10
2022-12-05T10:38:33.220Z,10.10
2022-12-05T10:41:06.358Z,10.20
2022-12-05T10:43:42.595Z,10.20
2022-12-05T10:46:17.377Z,10.30
2022-12-05T10:48:47.532Z,10.30
2022-12-05T10:51:23.687Z,10.30
2022-12-05T10:56:45.779Z,10.40
2022-12-05T10:59:37.797Z,10.40
2022-12-05T11:02:21.641Z,10.50
2022-12-05T11:04:49.225Z,10.60
2022-12-05T11:07:34.149Z,10.60
2022-12-05T11:10:27.182Z,10.60
2022-12-05T11:13:21.628Z,10.60
2022-12-05T11:15:55.677Z,10.70
2022-12-05T11:18:34.208Z,10.70
2022-12-05T11:24:30.009Z,10.70
2022-12-05T11:30:07.778Z,10.80
2022-12-05T11:32:39.085Z,10.80
2022-12-05T11:35:18.565Z,10.80
2022-12-05T11:38:10.424Z,10.80
2022-12-05T11:41:04.123Z,10.90
2022-12-05T11:44:19.208Z,10.90
2022-12-05T11:47:19.652Z,11.00
2022-12-05T11:50:21.678Z,11.00
2022-12-05T11:53:11.890Z,11.00
2022-12-05T11:56:26.962Z,11.10
2022-12-05T11:59:18.503Z,11.20
2022-12-05T12:02:16.911Z,11.20
2022-12-05T12:05:51.866Z,11.20
2022-12-05T12:08:26.078Z,11.30
2022-12-05T12:11:31.506Z,11.40
2022-12-05T12:14:15.912Z,11.40
2022-12-05T12:17:18.892Z,11.50
2022-12-05T12:20:14.766Z,11.50
2022-12-05T12:23:00.689Z,11.60
2022-12-05T12:26:13.000Z,11.70
2022-12-05T12:29:04.335Z,11.80
2022-12-05T12:31:45.466Z,11.90
2022-12-05T12:34:29.148Z,12.00
2022-12-05T12:37:39.156Z,12.10
2022-12-05T12:40:49.870Z,12.30
2022-12-05T12:43:55.005Z,12.70
2022-12-05T12:46:45.567Z,13.20
2022-12-05T12:49:50.659Z,14.30
2022-12-05T12:52:36.323Z,16.00
2022-12-05T12:55:24.918Z,17.80
2022-12-05T12:58:09.738Z,19.10
2022-12-05T13:00:48.846Z,20.10
2022-12-05T13:04:05.942Z,20.50
2022-12-05T13:06:59.772Z,21.40
2022-12-05T13:09:51.976Z,22.30
2022-12-05T13:12:27.865Z,22.50
2022-12-05T13:15:20.292Z,22.90
2022-12-05T13:17:51.848Z,22.80
2022-12-05T13:20:22.880Z,22.40
2022-12-05T13:22:56.309Z,21.70
2022-12-05T13:25:31.366Z,20.90
2022-12-05T13:28:09.534Z,20.20
2022-12-05T13:30:57.397Z,19.60
2022-12-05T13:33:39.742Z,18.80
2022-12-05T13:36:38.738Z,17.80
2022-12-05T13:39:54.266Z,17.10
2022-12-05T13:42:34.539Z,16.70
2022-12-05T13:45:20.735Z,16.30
2022-12-05T13:48:08.726Z,15.90
2022-12-05T13:50:51.837Z,15.60
2022-12-05T13:53:48.927Z,15.10
2022-12-05T13:56:46.048Z,15.00
2022-12-05T13:59:13.659Z,14.70
2022-12-05T14:01:55.761Z,14.40
2022-12-05T14:04:56.342Z,14.30
2022-12-05T14:07:48.516Z,14.20
2022-12-05T14:10:31.056Z,14.20
2022-12-05T14:13:05.237Z,14.20
2022-12-05T14:15:48.697Z,14.20
2022-12-05T14:18:28.156Z,14.00
2022-12-05T14:21:29.859Z,14.00
2022-12-05T14:24:33.000Z,13.90
2022-12-05T14:27:30.022Z,13.70
2022-12-05T14:30:44.426Z,13.50
2022-12-05T14:33:31.407Z,13.20
2022-12-05T14:36:07.832Z,13.00
2022-12-05T14:38:38.927Z,12.80
2022-12-05T14:41:34.494Z,12.60
2022-12-05T14:44:08.639Z,12.50
2022-12-05T14:46:44.665Z,12.30
2022-12-05T14:49:53.442Z,12.10
2022-12-05T14:52:29.112Z,12.00
2022-12-05T14:55:22.040Z,11.90
2022-12-05T14:58:06.214Z,11.70
2022-12-05T15:00:39.987Z,11.60
2022-12-05T15:03:25.704Z,11.50
2022-12-05T15:06:01.818Z,11.50
2022-12-05T15:08:42.683Z,11.40
2022-12-05T15:11:32.144Z,11.40
2022-12-05T15:14:31.319Z,11.30
2022-12-05T15:17:05.770Z,11.20
2022-12-05T15:20:10.258Z,11.10
2022-12-05T15:22:40.571Z,11.10
2022-12-05T15:25:42.012Z,11.00
2022-12-05T15:28:22.302Z,10.90
2022-12-05T15:30:59.639Z,10.80
2022-12-05T15:33:29.199Z,10.80
2022-12-05T15:36:03.654Z,10.80
2022-12-05T15:38:34.970Z,10.70
2022-12-05T15:41:04.650Z,10.70
2022-12-05T15:43:34.628Z,10.50
2022-12-05T15:46:27.791Z,10.50
2022-12-05T15:49:05.554Z,10.40
2022-12-05T15:51:38.826Z,10.40
2022-12-05T15:54:28.920Z,10.40
2022-12-05T15:57:17.211Z,10.40
2022-12-05T16:00:07.782Z,10.30
2022-12-05T16:02:52.422Z,10.30
2022-12-05T16:05:31.603Z,10.30
2022-12-05T16:08:06.110Z,10.30
2022-12-05T16:10:37.376Z,10.20
2022-12-05T16:13:35.451Z,10.20
2022-12-05T16:16:11.528Z,10.20
2022-12-05T16:18:42.230Z,10.20
2022-12-05T16:21:43.817Z,10.20
2022-12-05T16:24:31.506Z,10.20
2022-12-05T16:27:28.405Z,10.20
2022-12-05T16:30:24.528Z,10.10
2022-12-05T16:33:16.408Z,10.10
2022-12-05T16:35:53.114Z,10.10
2022-12-05T16:38:33.252Z,10.10
2022-12-05T16:41:13.140Z,10.10
2022-12-05T16:43:43.301Z,10.00
2022-12-05T16:46:31.321Z,10.00
2022-12-05T16:49:45.824Z,9.90
2022-12-05T16:52:19.427Z,9.80
2022-12-05T16:54:51.070Z,9.80
2022-12-05T16:57:22.111Z,9.80
2022-12-05T16:59:50.894Z,9.70
2022-12-05T17:02:22.068Z,9.70
2022-12-05T17:04:52.317Z,9.60
2022-12-05T17:07:32.385Z,9.60
2022-12-05T17:10:03.367Z,9.60
2022-12-05T17:12:33.058Z,9.60
2022-12-05T17:15:07.156Z,9.50
2022-12-05T17:17:39.038Z,9.50
2022-12-05T17:20:10.172Z,9.50
2022-12-05T17:22:41.380Z,9.50
2022-12-05T17:25:36.322Z,9.50
2022-12-05T17:28:03.875Z,9.40
2022-12-05T17:30:36.566Z,9.40
2022-12-05T17:33:05.237Z,9.40
2022-12-05T17:35:40.377Z,9.30
2022-12-05T17:38:15.836Z,9.30
2022-12-05T17:40:45.225Z,9.30
2022-12-05T17:43:23.043Z,9.30
2022-12-05T17:45:57.708Z,9.30
2022-12-05T17:48:26.906Z,9.30
2022-12-05T17:51:10.329Z,9.20
2022-12-05T17:53:43.227Z,9.10
2022-12-05T17:56:13.790Z,9.10
2022-12-05T17:58:44.149Z,9.10
2022-12-05T18:01:28.442Z,9.10
2022-12-05T18:04:01.265Z,9.00
2022-12-05T18:06:33.661Z,9.00
2022-12-05T18:09:01.982Z,9.00
2022-12-05T18:11:31.887Z,8.90
2022-12-05T18:14:03.671Z,8.90
2022-12-05T18:16:35.603Z,8.90
2022-12-05T18:19:06.867Z,8.90
2022-12-05T18:21:41.577Z,8.80
2022-12-05T18:24:13.065Z,8.90
2022-12-05T18:26:44.321Z,8.80
2022-12-05T18:29:14.799Z,8.80
2022-12-05T18:31:48.056Z,8.80
2022-12-05T18:34:17.808Z,8.70
2022-12-05T18:36:53.871Z,8.70
2022-12-05T18:39:21.798Z,8.80
2022-12-05T18:41:51.113Z,8.70
2022-12-05T18:44:20.805Z,8.70
2022-12-05T18:46:51.575Z,8.70
2022-12-05T18:49:21.201Z,8.70
2022-12-05T18:51:56.181Z,8.70
2022-12-05T18:54:24.979Z,8.60
2022-12-05T18:56:56.076Z,8.60
2022-12-05T18:59:27.956Z,8.60
2022-12-05T19:02:00.544Z,8.60
2022-12-05T19:04:31.054Z,8.60
2022-12-05T19:07:01.816Z,8.60
2022-12-05T19:09:36.112Z,8.60
2022-12-05T19:12:10.787Z,8.50
2022-12-05T19:14:39.122Z,8.60
2022-12-05T19:17:10.415Z,8.50
2022-12-05T19:19:42.321Z,8.50
2022-12-05T19:22:13.422Z,8.50
2022-12-05T19:24:45.918Z,8.50
2022-12-05T19:27:21.128Z,8.50
2022-12-05T19:29:52.685Z,8.40
2022-12-05T19:32:23.203Z,8.40
2022-12-05T19:34:53.290Z,8.40
2022-12-05T19:37:27.124Z,8.40
2022-12-05T19:39:55.382Z,8.40
2022-12-05T19:42:27.333Z,8.30
2022-12-05T19:44:54.827Z,8.30
2022-12-05T19:47:26.385Z,8.40
2022-12-05T19:49:57.336Z,8.30
2022-12-05T19:52:27.172Z,8.40
2022-12-05T19:54:57.143Z,8.40
2022-12-05T19:57:31.388Z,8.30
2022-12-05T20:00:03.814Z,8.30
2022-12-05T20:02:45.805Z,8.30
2022-12-05T20:05:15.707Z,8.30
2022-12-05T20:07:46.247Z,8.30
2022-12-05T20:10:17.317Z,8.40
2022-12-05T20:12:44.682Z,8.40
2022-12-05T20:15:15.732Z,8.40
2022-12-05T20:17:52.953Z,8.40
2022-12-05T20:20:24.798Z,8.40
2022-12-05T20:22:54.502Z,8.40
2022-12-05T20:25:24.038Z,8.40
2022-12-05T20:30:38.282Z,8.40
2022-12-05T20:33:07.885Z,8.30
2022-12-05T20:35:42.634Z,8.30
2022-12-05T20:38:13.684Z,8.30
2022-12-05T20:40:43.666Z,8.30
2022-12-05T20:43:30.315Z,8.30
2022-12-05T20:46:10.884Z,8.30
2022-12-05T20:48:40.984Z,8.30
2022-12-05T20:51:20.835Z,8.30
2022-12-05T20:53:49.382Z,8.30
2022-12-05T20:56:23.737Z,8.20
2022-12-05T20:58:53.703Z,8.20
2022-12-05T21:01:27.854Z,8.20
2022-12-05T21:03:58.926Z,8.20
2022-12-05T21:06:38.691Z,8.10
2022-12-05T21:09:17.308Z,8.10
2022-12-05T21:11:49.501Z,8.10
2022-12-05T21:14:17.771Z,8.10
2022-12-05T21:16:48.365Z,8.10
2022-12-05T21:19:20.059Z,8.10
2022-12-05T21:21:52.080Z,8.10
2022-12-05T21:24:20.929Z,8.00
2022-12-05T21:26:51.359Z,8.10
2022-12-05T21:29:25.664Z,8.00
2022-12-05T21:31:53.239Z,8.10
2022-12-05T21:34:23.966Z,8.10
2022-12-05T21:36:59.068Z,8.10
2022-12-05T21:39:34.030Z,8.10
2022-12-05T21:42:03.832Z,8.10
2022-12-05T21:44:33.052Z,8.00
2022-12-05T21:47:01.413Z,8.00
2022-12-05T21:49:33.886Z,7.90
2022-12-05T21:52:02.365Z,8.00
2022-12-05T21:54:33.600Z,8.00
2022-12-05T21:57:03.271Z,8.00
2022-12-05T21:59:33.133Z,8.00
2022-12-05T22:02:02.989Z,8.00
2022-12-05T22:04:31.151Z,8.00
2022-12-05T22:06:59.585Z,8.00
2022-12-05T22:09:53.662Z,8.00
2022-12-05T22:12:26.763Z,8.00
2022-12-05T22:14:59.775Z,8.00
2022-12-05T22:17:29.883Z,8.00
2022-12-05T22:20:00.765Z,8.00
2022-12-05T22:22:34.541Z,8.00
2022-12-05T22:25:06.753Z,8.10
2022-12-05T22:27:36.165Z,8.10
2022-12-05T22:30:07.751Z,8.10
2022-12-05T22:32:41.054Z,8.20
2022-12-05T22:35:08.336Z,8.10
2022-12-05T22:37:40.691Z,8.10
2022-12-05T22:40:09.481Z,8.10
2022-12-05T22:42:41.100Z,8.00
2022-12-05T22:45:13.143Z,8.10
2022-12-05T22:47:44.654Z,8.10
2022-12-05T22:50:15.506Z,8.20
2022-12-05T22:52:44.161Z,8.10
2022-12-05T22:55:11.993Z,8.10
2022-12-05T22:57:44.258Z,8.10
2022-12-05T23:00:14.934Z,8.10
2022-12-05T23:02:44.350Z,8.10
2022-12-05T23:05:12.936Z,8.10
2022-12-05T23:07:40.339Z,8.10
2022-12-05T23:10:12.863Z,8.10
2022-12-05T23:12:43.189Z,8.10
2022-12-05T23:15:15.830Z,8.00
2022-12-05T23:17:48.092Z,8.00
2022-12-05T23:20:17.413Z,8.00
2022-12-05T23:22:45.040Z,8.00
2022-12-05T23:25:14.302Z,8.00
2022-12-05T23:27:46.171Z,8.00
2022-12-05T23:30:18.282Z,8.00
2022-12-05T23:32:48.803Z,8.00
2022-12-05T23:35:17.487Z,8.00
2022-12-05T23:37:50.619Z,8.10
2022-12-05T23:40:20.578Z,8.10
2022-12-05T23:42:51.542Z,8.10
2022-12-05T23:45:18.888Z,8.10
2022-12-05T23:47:47.322Z,8.10
2022-12-05T23:50:15.840Z,8.10
2022-12-05T23:52:50.833Z,8.10
2022-12-05T23:55:22.169Z,8.10
2022-12-05T23:57:49.499Z,8.10
